• Join FlightAware (Why Join?)
  • Login
  • US Flag 
04:01AM EDT


 

Airport Tracker/Info


-or-


 

Live Flight TrackerFlight Track Log ✈ EJA720 ✈ 02-May-2013 ✈ KFTW - KAFJ

Flight Track Log - Related Links

Times and Time Zones

All times are in EDT time to prevent confusion due to time zone crossing. See the EJA720 flight status page for this flight to view local times or setup timezone preferences in your user account.

Time Position Orientation Groundspeed Altitude Reporting Facility
EDT Latitude Longitude Course Direction KTS MPH feet Rate Location/Type
08:06AM 32.8333 -97.3667 360° North 164 189 1,500  Level Dallas / Fort Worth TRACON
08:07AM 32.8833 -97.3667 360° North 188 216 3,400 1,860 Climbing Dallas / Fort Worth TRACON
08:08AM 32.9667 -97.3833 350° North 278 320 5,700 2,520 Climbing Dallas / Fort Worth TRACON
08:09AM 33.0333 -97.3667 12° North 270 311 8,800 3,420 Climbing Dallas / Fort Worth TRACON
08:10AM 33.0333 -97.2833 90° East 309 356 12,200 3,300 Climbing Dallas / Fort Worth TRACON
08:11AM 32.9731 -97.2006 131° Southeast 174 200 15,500 2,340 Climbing Fort Worth Center
08:12AM 32.9811 -97.0989 85° East 282 325 17,000 1,080 Climbing Fort Worth Center
08:13AM 32.9956 -96.9825 82° East 329 379 17,700 1,740 Climbing Fort Worth Center
08:14AM 33.0097 -96.8833 80° East 334 384 20,500 2,100 Climbing Fort Worth Center
08:16AM 32.9945 -96.7195 96° East  Level FlightAware Approximate
08:16AM 33.0481 -96.6228 96° East 389 448 24,000  Level Fort Worth Center
08:17AM 33.0678 -96.4739 81° East 441 507 25,500 1,440 Climbing Fort Worth Center
08:18AM 33.0856 -96.3447 81° East 455 524 26,900 1,500 Climbing Fort Worth Center
08:19AM 33.1406 -96.1903 67° East 450 518 28,500 1,320 Climbing Fort Worth Center
08:20AM 33.1914 -96.0631 64° Northeast 456 525 29,600 1,200 Climbing Fort Worth Center
08:21AM 33.2544 -95.9081 64° Northeast 468 539 31,000 660 Climbing Fort Worth Center
08:22AM 33.3069 -95.7781 64° Northeast 474 545 31,000  Level Fort Worth Center
08:23AM 33.3697 -95.6225 64° Northeast 469 540 31,000  Level Fort Worth Center
08:24AM 33.4239 -95.4797 66° East 464 534 31,000  Level Fort Worth Center
08:25AM 33.4822 -95.3389 64° Northeast 464 534 31,000 180 Level Fort Worth Center
08:26AM 33.5403 -95.1956 64° Northeast 464 534 31,400 660 Climbing Fort Worth Center
08:27AM 33.6172 -95.0714 53° Northeast 464 534 32,400 780 Climbing Fort Worth Center
08:28AM 33.6983 -94.9442 53° Northeast 469 540 33,000 300 Climbing Fort Worth Center
08:29AM 33.7836 -94.8194 51° Northeast 479 551 33,000  Level Fort Worth Center
08:30AM 33.8675 -94.7394 38° Northeast 464 534 33,000  Level Fort Worth Center
08:31AM 33.9742 -94.6636 31° Northeast 444 511 33,000  Level Fort Worth Center
08:32AM 34.0850 -94.5822 31° Northeast 444 511 33,000  Level Fort Worth Center
08:33AM 34.1942 -94.5108 28° Northeast 444 511 33,000  Level Fort Worth Center
08:35AM 34.3953 -94.2686 45° Northeast 454 522 33,000  Level Memphis Center
08:36AM 34.4703 -94.1411 54° Northeast 465 535 33,000  Level Memphis Center
08:37AM 34.5514 -94.0083 53° Northeast 478 550 33,000  Level Memphis Center
08:38AM 34.6281 -93.8781 54° Northeast 483 556 33,000  Level Memphis Center
08:39AM 34.7069 -93.7447 54° Northeast 483 556 33,000  Level Memphis Center
08:40AM 34.7833 -93.6139 55° Northeast 483 556 33,000  Level Memphis Center
08:41AM 34.8619 -93.4803 54° Northeast 483 556 33,000  Level Memphis Center
08:42AM 34.9383 -93.3461 55° Northeast 483 556 33,000  Level Memphis Center
08:43AM 35.0144 -93.2119 55° Northeast 488 562 33,000  Level Memphis Center
08:44AM 35.0881 -93.0850 55° Northeast 483 556 33,000  Level Memphis Center
08:45AM 35.1661 -92.9506 55° Northeast 478 550 33,000  Level Memphis Center
08:46AM 35.2419 -92.8181 55° Northeast 478 550 33,000  Level Memphis Center
08:47AM 35.3153 -92.6803 57° Northeast 478 550 33,000  Level Memphis Center
08:48AM 35.3969 -92.5578 51° Northeast 478 550 33,000  Level Memphis Center
08:49AM 35.4703 -92.4169 57° Northeast 478 550 33,000  Level Memphis Center
08:50AM 35.5453 -92.2836 55° Northeast 478 550 33,000  Level Memphis Center
08:51AM 35.6181 -92.1550 55° Northeast 466 536 33,000  Level Memphis Center
08:52AM 35.6908 -92.0236 56° Northeast 461 531 33,000  Level Memphis Center
08:53AM 35.7697 -91.8869 55° Northeast 467 537 33,000  Level Memphis Center
08:54AM 35.8381 -91.7550 57° Northeast 467 537 33,000  Level Memphis Center
08:55AM 35.9081 -91.6358 54° Northeast 467 537 33,000  Level Memphis Center
08:56AM 35.9761 -91.4983 59° Northeast 461 531 33,000  Level Memphis Center
08:57AM 36.0503 -91.3686 55° Northeast 461 531 33,000  Level Memphis Center
08:58AM 36.1244 -91.2306 56° Northeast 466 536 33,000  Level Memphis Center
08:59AM 36.2003 -91.0978 55° Northeast 466 536 33,000  Level Memphis Center
09:00AM 36.2719 -90.9644 56° Northeast 466 536 33,000  Level Memphis Center
09:01AM 36.3475 -90.8311 55° Northeast 461 531 33,000  Level Memphis Center
09:02AM 36.4189 -90.6947 57° Northeast 461 531 33,000  Level Memphis Center
09:03AM 36.4900 -90.5608 57° Northeast 461 531 33,000  Level Memphis Center
09:04AM 36.5650 -90.4242 56° Northeast 461 531 33,000  Level Memphis Center
09:05AM 36.6381 -90.2872 56° Northeast 461 531 33,000  Level Memphis Center
09:06AM 36.7128 -90.1525 55° Northeast 461 531 33,000  Level Memphis Center
09:07AM 36.7856 -90.0125 57° Northeast 466 536 33,000  Level Memphis Center
09:08AM 36.8581 -89.8747 57° Northeast 471 542 33,000  Level Memphis Center
09:09AM 36.9325 -89.7342 56° Northeast 471 542 33,000  Level Memphis Center
09:10AM 37.0044 -89.5958 57° Northeast 471 542 33,000 120 Level Memphis Center
09:11AM 37.0786 -89.4547 57° Northeast 477 549 33,300 480 Climbing Memphis Center
09:12AM 37.1567 -89.3056 57° Northeast 477 549 34,000 300 Climbing Memphis Center
09:13AM 37.2283 -89.1664 57° Northeast 477 549 34,000 360 Level Memphis Center
09:14AM 37.2997 -89.0272 57° Northeast 477 549 34,800 360 Climbing Memphis Center
09:16AM 37.4089 -88.8014 59° Northeast 476 548 35,000 60 Climbing Indianapolis Center
09:17AM 37.4803 -88.6625 57° Northeast 473 544 35,000  Level Indianapolis Center
09:18AM 37.5653 -88.4933 58° Northeast 475 547 35,000  Level Indianapolis Center
09:19AM 37.6361 -88.3539 57° Northeast 471 542 35,000  Level Indianapolis Center
09:20AM 37.7056 -88.2139 58° Northeast 471 542 35,100 480 Climbing Indianapolis Center
09:21AM 37.7753 -88.0733 58° Northeast 470 541 36,100 960 Climbing Indianapolis Center
09:22AM 37.8442 -87.9356 58° Northeast 463 533 37,100 960 Climbing Indianapolis Center
09:23AM 37.9117 -87.7972 58° Northeast 461 531 38,100 900 Climbing Indianapolis Center
09:24AM 37.9817 -87.6614 57° Northeast 459 528 39,000 420 Climbing Indianapolis Center
09:25AM 38.0594 -87.4903 60° Northeast 463 533 39,000  Level Indianapolis Center
09:27AM 38.1181 -87.3439 63° Northeast 464 534 39,000  Level Indianapolis Center
09:28AM 38.1750 -87.1989 63° Northeast 461 531 39,000  Level Indianapolis Center
09:29AM 38.2336 -87.0508 63° Northeast 465 535 39,000  Level Indianapolis Center
09:30AM 38.2911 -86.9056 63° Northeast 462 532 39,000  Level Indianapolis Center
09:31AM 38.3561 -86.7361 64° Northeast 466 536 39,000  Level Indianapolis Center
09:32AM 38.4133 -86.5897 63° Northeast 462 532 39,000  Level Indianapolis Center
09:33AM 38.4714 -86.4433 63° Northeast 463 533 39,000  Level Indianapolis Center
09:34AM 38.5278 -86.2933 64° Northeast 466 536 39,000  Level Indianapolis Center
09:35AM 38.5861 -86.1433 64° Northeast 469 540 39,000  Level Indianapolis Center
09:36AM 38.6431 -85.9939 64° Northeast 467 537 39,000  Level Indianapolis Center
09:37AM 38.7117 -85.8133 64° Northeast 467 537 39,000  Level Indianapolis Center
09:38AM 38.7669 -85.6642 65° Northeast 466 536 39,000  Level Indianapolis Center
09:39AM 38.8222 -85.5158 64° Northeast 467 537 39,000  Level Indianapolis Center
09:40AM 38.8781 -85.3672 64° Northeast 466 536 39,000  Level Indianapolis Center
09:41AM 38.9325 -85.2183 65° Northeast 463 533 39,000  Level Indianapolis Center
09:42AM 38.9975 -85.0422 65° Northeast 460 529 39,000  Level Indianapolis Center
09:43AM 39.0525 -84.8944 64° Northeast 461 531 39,000  Level Indianapolis Center
09:44AM 39.1067 -84.7481 64° Northeast 462 532 39,000  Level Indianapolis Center
09:45AM 39.1600 -84.5964 66° East 462 532 39,000  Level Indianapolis Center
09:46AM 39.2167 -84.4444 64° Northeast 466 536 39,000  Level Indianapolis Center
09:47AM 39.2783 -84.2678 66° East 460 529 39,000 -360 Level Indianapolis Center
09:48AM 39.3331 -84.1147 65° Northeast 459 528 38,300 -1,260 Descending Indianapolis Center
09:49AM 39.3706 -83.9608 72° East 455 524 36,400 -2,220 Descending Indianapolis Center
09:50AM 39.4064 -83.8033 74° East 453 521 33,800 -2,280 Descending Indianapolis Center
09:51AM 39.4631 -83.6539 64° Northeast 463 533 31,700 -2,040 Descending Indianapolis Center
09:52AM 39.5200 -83.5006 64° Northeast 469 540 29,700 -2,100 Descending Indianapolis Center
09:53AM 39.5858 -83.3181 65° Northeast 480 552 27,400 -2,100 Descending Indianapolis Center
09:54AM 39.6408 -83.1669 65° Northeast 468 539 25,400 -1,980 Descending Indianapolis Center
09:55AM 39.6931 -83.0178 65° Northeast 457 526 23,400 -1,200 Descending Indianapolis Center
09:56AM 39.7447 -82.8733 65° Northeast 444 511 23,000 -240 Descending Indianapolis Center
09:58AM 39.7975 -82.7244 65° Northeast 449 517 23,000  Level Indianapolis Center
09:59AM 39.8489 -82.5803 65° Northeast 440 506 23,000  Level Indianapolis Center
10:00AM 39.9119 -82.4017 65° Northeast 459 528 23,000 -60 Level Indianapolis Center
10:01AM 39.9661 -82.2442 66° East 471 542 22,900 -780 Descending Indianapolis Center
10:02AM 40.0206 -82.0892 65° Northeast 467 537 21,500 -1,500 Descending Indianapolis Center
10:03AM 40.0697 -81.9481 65° Northeast 432 497 19,900 -1,560 Descending Indianapolis Center
10:04AM 40.1167 -81.8108 66° East 414 476 18,300 -1,440 Descending Indianapolis Center
10:05AM 40.1644 -81.6686 66° East 403 464 17,000 -1,380 Descending Indianapolis Center
10:05AM 40.1756 -81.5614 82° East 372 428 15,900 -1,200 Descending Cleveland Center
10:06AM 40.1725 -81.4253 92° East 372 428 15,000 -600 Descending Cleveland Center
10:07AM 40.1692 -81.2922 92° East 366 421 14,700 -960 Descending Cleveland Center
10:08AM 40.1658 -81.1592 92° East 366 421 13,100 -1,740 Descending Cleveland Center
10:10AM 40.1600 -81.0314 93° East 361 415 11,300 -1,980 Descending Cleveland Center
10:10AM 40.1583 -80.9225 91° East 341 392 9,200 -2,100 Descending Cleveland Center
10:11AM 40.1564 -80.8331 92° East 296 341 7,200 -1,920 Descending Cleveland Center
10:12AM 40.1525 -80.7461 93° East 255 293 5,400 -1,620 Descending Cleveland Center
10:13AM 40.1506 -80.6511 92° East 245 282 4,000 -900 Descending Cleveland Center
10:14AM 40.1464 -80.5614 93° East 250 288 3,600 -540 Descending Cleveland Center
10:15AM 40.1381 -80.4717 97° East 250 288 3,000 -300 Descending Cleveland Center
10:16AM 40.1336 -80.3931 94° East 245 282 3,000 960 Level Cleveland Center
10:17AM 40.1272 -80.3033 95° East 245 282 5,000 960 Climbing Cleveland Center
10:19AM 40.1228 -80.2167 94° East 245 282 5,000  Level Cleveland Center
10:19AM 40.1164 -80.1269 95° East 245 282 5,000  Level Cleveland Center
10:21AM 40.1333 -80.2833 288° West  Level FlightAware Approximate
10:28AM 40.1365 -80.2902 288° West  Level Estimated